sensor_id;sensor_type;location;lat;lon;timestamp;temperature;humidity
14359;DHT22;7263;49.418;11.064;2022-08-21T00:00:19;16.60;99.90
14359;DHT22;7263;49.418;11.064;2022-08-21T00:02:49;16.60;99.90
14359;DHT22;7263;49.418;11.064;2022-08-21T00:05:17;16.50;99.90
14359;DHT22;7263;49.418;11.064;2022-08-21T00:07:46;16.50;99.90
14359;DHT22;7263;49.418;11.064;2022-08-21T00:10:13;16.50;99.90
14359;DHT22;7263;49.418;11.064;2022-08-21T00:12:42;16.50;99.90
14359;DHT22;7263;49.418;11.064;2022-08-21T00:15:11;16.40;99.90
14359;DHT22;7263;49.418;11.064;2022-08-21T00:17:39;16.40;99.90
14359;DHT22;7263;49.418;11.064;2022-08-21T00:20:08;16.40;99.90
14359;DHT22;7263;49.418;11.064;2022-08-21T00:22:36;16.40;99.90
14359;DHT22;7263;49.418;11.064;2022-08-21T00:25:06;16.30;99.90
14359;DHT22;7263;49.418;11.064;2022-08-21T00:27:33;16.30;99.90
14359;DHT22;7263;49.418;11.064;2022-08-21T00:39:51;16.10;99.90
14359;DHT22;7263;49.418;11.064;2022-08-21T00:44:49;16.10;99.90
14359;DHT22;7263;49.418;11.064;2022-08-21T00:47:16;16.10;99.90
14359;DHT22;7263;49.418;11.064;2022-08-21T00:52:15;16.10;99.90
14359;DHT22;7263;49.418;11.064;2022-08-21T00:54:43;16.00;99.90
14359;DHT22;7263;49.418;11.064;2022-08-21T00:57:14;16.00;99.90
14359;DHT22;7263;49.418;11.064;2022-08-21T00:59:45;16.00;99.90
14359;DHT22;7263;49.418;11.064;2022-08-21T01:02:13;16.00;99.90
14359;DHT22;7263;49.418;11.064;2022-08-21T01:07:08;16.00;99.90
14359;DHT22;7263;49.418;11.064;2022-08-21T01:09:36;15.90;99.90
14359;DHT22;7263;49.418;11.064;2022-08-21T01:12:03;15.90;99.90
14359;DHT22;7263;49.418;11.064;2022-08-21T01:14:30;15.90;99.90
14359;DHT22;7263;49.418;11.064;2022-08-21T01:16:59;15.90;99.90
14359;DHT22;7263;49.418;11.064;2022-08-21T01:26:52;15.80;99.90
14359;DHT22;7263;49.418;11.064;2022-08-21T01:29:34;15.90;99.90
14359;DHT22;7263;49.418;11.064;2022-08-21T01:32:09;15.90;99.90
14359;DHT22;7263;49.418;11.064;2022-08-21T01:34:39;15.80;99.90
14359;DHT22;7263;49.418;11.064;2022-08-21T01:37:08;15.90;99.90
14359;DHT22;7263;49.418;11.064;2022-08-21T01:39:36;15.90;99.90
14359;DHT22;7263;49.418;11.064;2022-08-21T01:47:00;15.90;99.90
14359;DHT22;7263;49.418;11.064;2022-08-21T01:49:27;15.80;99.90
14359;DHT22;7263;49.418;11.064;2022-08-21T01:54:22;15.80;99.90
14359;DHT22;7263;49.418;11.064;2022-08-21T02:06:42;15.60;99.90
14359;DHT22;7263;49.418;11.064;2022-08-21T02:09:10;15.60;99.90
14359;DHT22;7263;49.418;11.064;2022-08-21T02:11:39;15.60;99.90
14359;DHT22;7263;49.418;11.064;2022-08-21T02:14:06;15.50;99.90
14359;DHT22;7263;49.418;11.064;2022-08-21T02:19:01;15.50;99.90
14359;DHT22;7263;49.418;11.064;2022-08-21T02:23:55;15.40;99.90
14359;DHT22;7263;49.418;11.064;2022-08-21T02:26:22;15.40;99.90
14359;DHT22;7263;49.418;11.064;2022-08-21T02:28:50;15.40;99.90
14359;DHT22;7263;49.418;11.064;2022-08-21T02:31:17;15.40;99.90
14359;DHT22;7263;49.418;11.064;2022-08-21T02:33:44;15.40;99.90
14359;DHT22;7263;49.418;11.064;2022-08-21T02:36:11;15.40;99.90
14359;DHT22;7263;49.418;11.064;2022-08-21T02:38:40;15.40;99.90
14359;DHT22;7263;49.418;11.064;2022-08-21T02:41:09;15.40;99.90
14359;DHT22;7263;49.418;11.064;2022-08-21T02:43:37;15.30;99.90
14359;DHT22;7263;49.418;11.064;2022-08-21T02:46:06;15.40;99.90
14359;DHT22;7263;49.418;11.064;2022-08-21T02:48:34;15.50;99.90
14359;DHT22;7263;49.418;11.064;2022-08-21T02:51:06;15.50;99.90
14359;DHT22;7263;49.418;11.064;2022-08-21T02:53:34;15.50;99.90
14359;DHT22;7263;49.418;11.064;2022-08-21T02:56:05;15.50;99.90
14359;DHT22;7263;49.418;11.064;2022-08-21T02:58:34;15.50;99.90
14359;DHT22;7263;49.418;11.064;2022-08-21T03:01:03;15.50;99.90
14359;DHT22;7263;49.418;11.064;2022-08-21T03:03:31;15.50;99.90
14359;DHT22;7263;49.418;11.064;2022-08-21T03:06:00;15.50;99.90
14359;DHT22;7263;49.418;11.064;2022-08-21T03:10:54;15.40;99.90
14359;DHT22;7263;49.418;11.064;2022-08-21T03:13:22;15.40;99.90
14359;DHT22;7263;49.418;11.064;2022-08-21T03:18:17;15.40;99.90
14359;DHT22;7263;49.418;11.064;2022-08-21T03:20:46;15.40;99.90
14359;DHT22;7263;49.418;11.064;2022-08-21T03:23:14;15.30;99.90
14359;DHT22;7263;49.418;11.064;2022-08-21T03:25:41;15.30;99.90
14359;DHT22;7263;49.418;11.064;2022-08-21T03:28:12;15.20;99.90
14359;DHT22;7263;49.418;11.064;2022-08-21T03:30:39;15.20;99.90
14359;DHT22;7263;49.418;11.064;2022-08-21T03:38:02;15.20;99.90
14359;DHT22;7263;49.418;11.064;2022-08-21T03:40:30;15.30;99.90
14359;DHT22;7263;49.418;11.064;2022-08-21T03:45:25;15.40;99.90
14359;DHT22;7263;49.418;11.064;2022-08-21T03:47:53;15.50;99.90
14359;DHT22;7263;49.418;11.064;2022-08-21T03:52:48;15.60;99.90
14359;DHT22;7263;49.418;11.064;2022-08-21T03:55:17;15.60;99.90
14359;DHT22;7263;49.418;11.064;2022-08-21T03:57:44;15.70;99.90
14359;DHT22;7263;49.418;11.064;2022-08-21T04:00:13;15.70;99.90
14359;DHT22;7263;49.418;11.064;2022-08-21T04:02:40;15.80;99.90
14359;DHT22;7263;49.418;11.064;2022-08-21T04:05:08;15.80;99.90
14359;DHT22;7263;49.418;11.064;2022-08-21T04:07:35;15.90;99.90
14359;DHT22;7263;49.418;11.064;2022-08-21T04:10:05;15.90;99.90
14359;DHT22;7263;49.418;11.064;2022-08-21T04:15:01;16.00;99.90
14359;DHT22;7263;49.418;11.064;2022-08-21T04:17:27;16.00;99.90
14359;DHT22;7263;49.418;11.064;2022-08-21T04:22:22;16.00;99.90
14359;DHT22;7263;49.418;11.064;2022-08-21T04:29:44;16.00;99.90
14359;DHT22;7263;49.418;11.064;2022-08-21T04:32:11;16.00;99.90
14359;DHT22;7263;49.418;11.064;2022-08-21T04:44:26;16.00;99.90
14359;DHT22;7263;49.418;11.064;2022-08-21T04:46:55;16.00;99.90
14359;DHT22;7263;49.418;11.064;2022-08-21T04:51:49;15.90;99.90
14359;DHT22;7263;49.418;11.064;2022-08-21T04:54:19;16.00;99.90
14359;DHT22;7263;49.418;11.064;2022-08-21T04:56:49;16.00;99.90
14359;DHT22;7263;49.418;11.064;2022-08-21T04:59:20;16.00;99.90
14359;DHT22;7263;49.418;11.064;2022-08-21T05:01:48;16.00;99.90
14359;DHT22;7263;49.418;11.064;2022-08-21T05:04:20;16.00;99.90
14359;DHT22;7263;49.418;11.064;2022-08-21T05:06:48;16.00;99.90
14359;DHT22;7263;49.418;11.064;2022-08-21T05:09:16;16.00;99.90
14359;DHT22;7263;49.418;11.064;2022-08-21T05:14:12;16.00;99.90
14359;DHT22;7263;49.418;11.064;2022-08-21T05:16:40;16.00;99.90
14359;DHT22;7263;49.418;11.064;2022-08-21T05:21:38;16.00;99.90
14359;DHT22;7263;49.418;11.064;2022-08-21T05:24:06;16.10;99.90
14359;DHT22;7263;49.418;11.064;2022-08-21T05:26:33;16.10;99.90
14359;DHT22;7263;49.418;11.064;2022-08-21T05:29:00;16.10;99.90
14359;DHT22;7263;49.418;11.064;2022-08-21T05:38:50;16.20;99.90
14359;DHT22;7263;49.418;11.064;2022-08-21T05:41:17;16.20;99.90
14359;DHT22;7263;49.418;11.064;2022-08-21T05:46:11;16.30;99.90
14359;DHT22;7263;49.418;11.064;2022-08-21T05:51:06;16.30;99.90
14359;DHT22;7263;49.418;11.064;2022-08-21T05:53:34;16.40;99.90
14359;DHT22;7263;49.418;11.064;2022-08-21T05:56:03;16.40;99.90
14359;DHT22;7263;49.418;11.064;2022-08-21T05:58:32;16.40;99.90
14359;DHT22;7263;49.418;11.064;2022-08-21T06:01:00;16.50;99.90
14359;DHT22;7263;49.418;11.064;2022-08-21T06:03:30;16.60;99.90
14359;DHT22;7263;49.418;11.064;2022-08-21T06:08:25;16.60;99.90
14359;DHT22;7263;49.418;11.064;2022-08-21T06:10:53;16.70;99.90
14359;DHT22;7263;49.418;11.064;2022-08-21T06:13:23;16.80;99.90
14359;DHT22;7263;49.418;11.064;2022-08-21T06:15:59;16.80;99.90
14359;DHT22;7263;49.418;11.064;2022-08-21T06:23:21;16.80;99.90
14359;DHT22;7263;49.418;11.064;2022-08-21T06:25:48;16.80;99.90
14359;DHT22;7263;49.418;11.064;2022-08-21T06:28:14;16.80;99.90
14359;DHT22;7263;49.418;11.064;2022-08-21T06:30:43;16.90;99.90
14359;DHT22;7263;49.418;11.064;2022-08-21T06:35:37;17.00;99.90
14359;DHT22;7263;49.418;11.064;2022-08-21T06:38:04;17.10;99.90
14359;DHT22;7263;49.418;11.064;2022-08-21T06:40:31;17.10;99.90
14359;DHT22;7263;49.418;11.064;2022-08-21T06:42:58;17.20;99.90
14359;DHT22;7263;49.418;11.064;2022-08-21T06:45:31;17.20;99.90
14359;DHT22;7263;49.418;11.064;2022-08-21T06:48:00;17.20;99.90
14359;DHT22;7263;49.418;11.064;2022-08-21T06:50:27;17.30;99.90
14359;DHT22;7263;49.418;11.064;2022-08-21T06:52:59;17.30;99.90
14359;DHT22;7263;49.418;11.064;2022-08-21T06:55:26;17.40;99.90
14359;DHT22;7263;49.418;11.064;2022-08-21T06:57:53;17.30;99.90
14359;DHT22;7263;49.418;11.064;2022-08-21T07:00:20;17.30;99.90
14359;DHT22;7263;49.418;11.064;2022-08-21T07:02:48;17.30;99.90
14359;DHT22;7263;49.418;11.064;2022-08-21T07:05:16;17.40;99.90
14359;DHT22;7263;49.418;11.064;2022-08-21T07:07:43;17.30;99.90
14359;DHT22;7263;49.418;11.064;2022-08-21T07:15:05;17.30;99.90
14359;DHT22;7263;49.418;11.064;2022-08-21T07:22:28;17.60;99.90
14359;DHT22;7263;49.418;11.064;2022-08-21T07:24:56;17.70;99.90
14359;DHT22;7263;49.418;11.064;2022-08-21T07:27:23;17.70;99.90
14359;DHT22;7263;49.418;11.064;2022-08-21T07:29:50;17.60;99.90
14359;DHT22;7263;49.418;11.064;2022-08-21T07:32:16;17.60;99.90
14359;DHT22;7263;49.418;11.064;2022-08-21T07:34:43;17.70;99.90
14359;DHT22;7263;49.418;11.064;2022-08-21T07:37:10;17.80;99.90
14359;DHT22;7263;49.418;11.064;2022-08-21T07:39:38;17.80;99.90
14359;DHT22;7263;49.418;11.064;2022-08-21T07:47:01;18.30;99.90
14359;DHT22;7263;49.418;11.064;2022-08-21T07:51:55;18.60;99.90
14359;DHT22;7263;49.418;11.064;2022-08-21T07:56:50;18.60;99.90
14359;DHT22;7263;49.418;11.064;2022-08-21T07:59:17;18.80;99.90
14359;DHT22;7263;49.418;11.064;2022-08-21T08:01:44;18.90;99.90
14359;DHT22;7263;49.418;11.064;2022-08-21T08:06:40;18.90;99.90
14359;DHT22;7263;49.418;11.064;2022-08-21T08:09:07;18.90;99.90
14359;DHT22;7263;49.418;11.064;2022-08-21T08:11:34;19.00;99.90
14359;DHT22;7263;49.418;11.064;2022-08-21T08:14:03;19.00;99.90
14359;DHT22;7263;49.418;11.064;2022-08-21T08:16:30;19.20;99.90
14359;DHT22;7263;49.418;11.064;2022-08-21T08:18:57;19.30;99.90
14359;DHT22;7263;49.418;11.064;2022-08-21T08:21:24;19.50;99.90
14359;DHT22;7263;49.418;11.064;2022-08-21T08:23:50;19.50;99.90
14359;DHT22;7263;49.418;11.064;2022-08-21T08:26:17;19.40;99.90
14359;DHT22;7263;49.418;11.064;2022-08-21T08:28:44;19.30;99.90
14359;DHT22;7263;49.418;11.064;2022-08-21T08:31:14;19.40;99.90
14359;DHT22;7263;49.418;11.064;2022-08-21T08:33:41;19.50;99.90
14359;DHT22;7263;49.418;11.064;2022-08-21T08:36:13;19.60;99.90
14359;DHT22;7263;49.418;11.064;2022-08-21T08:38:41;19.70;99.90
14359;DHT22;7263;49.418;11.064;2022-08-21T08:41:12;19.70;99.90
14359;DHT22;7263;49.418;11.064;2022-08-21T08:43:42;19.90;99.90
14359;DHT22;7263;49.418;11.064;2022-08-21T08:46:16;19.90;99.90
14359;DHT22;7263;49.418;11.064;2022-08-21T08:48:49;19.90;99.90
14359;DHT22;7263;49.418;11.064;2022-08-21T08:51:21;19.90;99.90
14359;DHT22;7263;49.418;11.064;2022-08-21T08:53:52;20.00;99.90
14359;DHT22;7263;49.418;11.064;2022-08-21T08:56:32;20.20;99.90
14359;DHT22;7263;49.418;11.064;2022-08-21T08:59:05;20.30;99.90
14359;DHT22;7263;49.418;11.064;2022-08-21T09:01:35;20.30;99.90
14359;DHT22;7263;49.418;11.064;2022-08-21T09:04:02;20.50;99.90
14359;DHT22;7263;49.418;11.064;2022-08-21T09:06:54;20.60;99.90
14359;DHT22;7263;49.418;11.064;2022-08-21T09:09:31;20.80;99.90
14359;DHT22;7263;49.418;11.064;2022-08-21T09:12:06;21.00;99.90
14359;DHT22;7263;49.418;11.064;2022-08-21T09:14:51;21.10;99.90
14359;DHT22;7263;49.418;11.064;2022-08-21T09:17:35;21.20;99.90
14359;DHT22;7263;49.418;11.064;2022-08-21T09:20:15;21.40;99.90
14359;DHT22;7263;49.418;11.064;2022-08-21T09:22:51;21.40;99.90
14359;DHT22;7263;49.418;11.064;2022-08-21T09:25:23;21.40;99.90
14359;DHT22;7263;49.418;11.064;2022-08-21T09:30:24;21.80;99.90
14359;DHT22;7263;49.418;11.064;2022-08-21T09:32:53;21.80;99.90
14359;DHT22;7263;49.418;11.064;2022-08-21T09:35:21;20.70;99.90
14359;DHT22;7263;49.418;11.064;2022-08-21T09:37:52;22.40;99.90
14359;DHT22;7263;49.418;11.064;2022-08-21T09:40:27;19.20;99.90
14359;DHT22;7263;49.418;11.064;2022-08-21T09:42:58;22.90;99.90
14359;DHT22;7263;49.418;11.064;2022-08-21T09:45:25;23.20;99.90
14359;DHT22;7263;49.418;11.064;2022-08-21T09:47:54;23.40;99.90
14359;DHT22;7263;49.418;11.064;2022-08-21T09:50:23;23.70;99.90
14359;DHT22;7263;49.418;11.064;2022-08-21T09:52:53;24.00;99.90
14359;DHT22;7263;49.418;11.064;2022-08-21T09:55:29;24.10;99.90
14359;DHT22;7263;49.418;11.064;2022-08-21T09:58:14;24.00;99.90
14359;DHT22;7263;49.418;11.064;2022-08-21T10:00:42;24.20;99.90
14359;DHT22;7263;49.418;11.064;2022-08-21T10:03:17;24.80;99.90
14359;DHT22;7263;49.418;11.064;2022-08-21T10:05:54;25.10;99.90
14359;DHT22;7263;49.418;11.064;2022-08-21T10:08:23;25.40;99.90
14359;DHT22;7263;49.418;11.064;2022-08-21T10:10:54;26.30;99.90
14359;DHT22;7263;49.418;11.064;2022-08-21T10:13:30;26.20;99.90
14359;DHT22;7263;49.418;11.064;2022-08-21T10:16:09;28.90;99.90
14359;DHT22;7263;49.418;11.064;2022-08-21T10:18:41;26.20;99.90
14359;DHT22;7263;49.418;11.064;2022-08-21T10:21:21;26.10;99.90
14359;DHT22;7263;49.418;11.064;2022-08-21T10:23:58;26.50;99.90
14359;DHT22;7263;49.418;11.064;2022-08-21T10:26:35;26.60;99.90
14359;DHT22;7263;49.418;11.064;2022-08-21T10:29:16;26.70;99.90
14359;DHT22;7263;49.418;11.064;2022-08-21T10:31:54;27.00;99.90
14359;DHT22;7263;49.418;11.064;2022-08-21T10:34:36;27.30;99.90
14359;DHT22;7263;49.418;11.064;2022-08-21T10:37:17;27.40;99.90
14359;DHT22;7263;49.418;11.064;2022-08-21T10:39:53;27.50;99.90
14359;DHT22;7263;49.418;11.064;2022-08-21T10:42:35;27.40;99.90
14359;DHT22;7263;49.418;11.064;2022-08-21T10:45:14;27.40;99.90
14359;DHT22;7263;49.418;11.064;2022-08-21T10:47:46;27.10;99.90
14359;DHT22;7263;49.418;11.064;2022-08-21T10:50:28;27.20;99.90
14359;DHT22;7263;49.418;11.064;2022-08-21T10:53:08;27.10;99.90
14359;DHT22;7263;49.418;11.064;2022-08-21T10:55:41;27.50;99.90
14359;DHT22;7263;49.418;11.064;2022-08-21T10:58:10;27.80;99.90
14359;DHT22;7263;49.418;11.064;2022-08-21T11:00:41;27.80;99.90
14359;DHT22;7263;49.418;11.064;2022-08-21T11:03:12;27.60;99.90
14359;DHT22;7263;49.418;11.064;2022-08-21T11:05:46;27.50;99.90
14359;DHT22;7263;49.418;11.064;2022-08-21T11:08:18;27.40;99.90
14359;DHT22;7263;49.418;11.064;2022-08-21T11:10:51;27.30;99.90
14359;DHT22;7263;49.418;11.064;2022-08-21T11:13:25;27.20;99.90
14359;DHT22;7263;49.418;11.064;2022-08-21T11:15:58;26.90;99.90
14359;DHT22;7263;49.418;11.064;2022-08-21T11:18:31;26.90;99.90
14359;DHT22;7263;49.418;11.064;2022-08-21T11:21:15;26.90;99.90
14359;DHT22;7263;49.418;11.064;2022-08-21T11:23:49;27.00;99.90
14359;DHT22;7263;49.418;11.064;2022-08-21T11:26:22;26.60;99.90
14359;DHT22;7263;49.418;11.064;2022-08-21T11:28:55;26.40;99.90
14359;DHT22;7263;49.418;11.064;2022-08-21T11:31:35;26.40;99.90
14359;DHT22;7263;49.418;11.064;2022-08-21T11:34:16;26.00;99.90
14359;DHT22;7263;49.418;11.064;2022-08-21T11:36:55;26.10;99.90
14359;DHT22;7263;49.418;11.064;2022-08-21T11:39:30;26.30;99.90
14359;DHT22;7263;49.418;11.064;2022-08-21T11:42:10;26.40;99.90
14359;DHT22;7263;49.418;11.064;2022-08-21T11:44:48;26.70;99.90
14359;DHT22;7263;49.418;11.064;2022-08-21T11:47:23;27.00;99.90
14359;DHT22;7263;49.418;11.064;2022-08-21T11:50:05;27.00;99.90
14359;DHT22;7263;49.418;11.064;2022-08-21T11:52:37;27.10;99.90
14359;DHT22;7263;49.418;11.064;2022-08-21T11:55:07;27.00;99.90
14359;DHT22;7263;49.418;11.064;2022-08-21T11:57:40;27.20;99.90
14359;DHT22;7263;49.418;11.064;2022-08-21T12:00:17;27.30;99.90
14359;DHT22;7263;49.418;11.064;2022-08-21T12:02:50;27.20;99.90
14359;DHT22;7263;49.418;11.064;2022-08-21T12:05:28;26.80;99.90
14359;DHT22;7263;49.418;11.064;2022-08-21T12:08:05;26.70;99.90
14359;DHT22;7263;49.418;11.064;2022-08-21T12:10:35;26.70;99.90
14359;DHT22;7263;49.418;11.064;2022-08-21T12:13:10;26.70;99.90
14359;DHT22;7263;49.418;11.064;2022-08-21T12:15:39;27.00;99.90
14359;DHT22;7263;49.418;11.064;2022-08-21T12:18:20;27.10;99.90
14359;DHT22;7263;49.418;11.064;2022-08-21T12:20:59;26.90;99.90
14359;DHT22;7263;49.418;11.064;2022-08-21T12:23:30;26.70;99.90
14359;DHT22;7263;49.418;11.064;2022-08-21T12:26:18;26.70;99.90
14359;DHT22;7263;49.418;11.064;2022-08-21T12:28:47;26.40;99.90
14359;DHT22;7263;49.418;11.064;2022-08-21T12:31:22;26.30;99.90
14359;DHT22;7263;49.418;11.064;2022-08-21T12:33:56;26.20;99.50
14359;DHT22;7263;49.418;11.064;2022-08-21T12:36:28;25.60;99.90
14359;DHT22;7263;49.418;11.064;2022-08-21T12:39:02;25.40;99.90
14359;DHT22;7263;49.418;11.064;2022-08-21T12:41:34;25.30;99.90
14359;DHT22;7263;49.418;11.064;2022-08-21T12:44:07;25.30;99.90
14359;DHT22;7263;49.418;11.064;2022-08-21T12:46:39;25.20;99.90
14359;DHT22;7263;49.418;11.064;2022-08-21T12:49:13;25.10;99.90
14359;DHT22;7263;49.418;11.064;2022-08-21T12:51:50;25.00;99.90
14359;DHT22;7263;49.418;11.064;2022-08-21T12:54:26;24.80;99.90
14359;DHT22;7263;49.418;11.064;2022-08-21T12:56:58;24.90;99.90
14359;DHT22;7263;49.418;11.064;2022-08-21T12:59:26;24.80;99.90
14359;DHT22;7263;49.418;11.064;2022-08-21T13:01:54;24.80;99.90
14359;DHT22;7263;49.418;11.064;2022-08-21T13:04:32;24.70;99.90
14359;DHT22;7263;49.418;11.064;2022-08-21T13:07:00;21.50;99.90
14359;DHT22;7263;49.418;11.064;2022-08-21T13:09:30;24.80;99.90
14359;DHT22;7263;49.418;11.064;2022-08-21T13:11:58;24.80;99.90
14359;DHT22;7263;49.418;11.064;2022-08-21T13:14:30;25.00;99.90
14359;DHT22;7263;49.418;11.064;2022-08-21T13:17:00;25.00;99.90
14359;DHT22;7263;49.418;11.064;2022-08-21T13:19:29;24.80;99.90
14359;DHT22;7263;49.418;11.064;2022-08-21T13:21:57;24.90;99.90
14359;DHT22;7263;49.418;11.064;2022-08-21T13:24:26;24.80;99.90
14359;DHT22;7263;49.418;11.064;2022-08-21T13:26:56;24.80;99.90
14359;DHT22;7263;49.418;11.064;2022-08-21T13:29:28;25.10;99.90
14359;DHT22;7263;49.418;11.064;2022-08-21T13:31:58;25.20;99.90
14359;DHT22;7263;49.418;11.064;2022-08-21T13:34:29;25.20;99.90
14359;DHT22;7263;49.418;11.064;2022-08-21T13:36:59;25.20;99.90
14359;DHT22;7263;49.418;11.064;2022-08-21T13:39:27;25.10;99.90
14359;DHT22;7263;49.418;11.064;2022-08-21T13:41:57;26.60;99.90
14359;DHT22;7263;49.418;11.064;2022-08-21T13:44:34;24.90;99.90
14359;DHT22;7263;49.418;11.064;2022-08-21T13:47:04;24.90;99.90
14359;DHT22;7263;49.418;11.064;2022-08-21T13:49:33;24.90;99.90
14359;DHT22;7263;49.418;11.064;2022-08-21T13:52:00;24.70;99.90
14359;DHT22;7263;49.418;11.064;2022-08-21T13:54:34;24.70;99.90
14359;DHT22;7263;49.418;11.064;2022-08-21T13:57:03;24.70;99.90
14359;DHT22;7263;49.418;11.064;2022-08-21T13:59:32;24.60;99.90
14359;DHT22;7263;49.418;11.064;2022-08-21T14:02:01;24.60;99.90
14359;DHT22;7263;49.418;11.064;2022-08-21T14:04:37;24.50;99.90
14359;DHT22;7263;49.418;11.064;2022-08-21T14:07:16;24.40;99.90
14359;DHT22;7263;49.418;11.064;2022-08-21T14:09:45;24.30;99.90
14359;DHT22;7263;49.418;11.064;2022-08-21T14:12:17;24.20;99.90
14359;DHT22;7263;49.418;11.064;2022-08-21T14:14:45;24.10;99.90
14359;DHT22;7263;49.418;11.064;2022-08-21T14:17:14;24.20;99.90
14359;DHT22;7263;49.418;11.064;2022-08-21T14:19:52;24.20;99.90
14359;DHT22;7263;49.418;11.064;2022-08-21T14:22:23;24.30;99.90
14359;DHT22;7263;49.418;11.064;2022-08-21T14:24:59;24.30;99.90
14359;DHT22;7263;49.418;11.064;2022-08-21T14:27:28;24.40;99.90
14359;DHT22;7263;49.418;11.064;2022-08-21T14:29:59;24.40;99.90
14359;DHT22;7263;49.418;11.064;2022-08-21T14:32:28;24.50;99.90
14359;DHT22;7263;49.418;11.064;2022-08-21T14:34:56;24.50;99.90
14359;DHT22;7263;49.418;11.064;2022-08-21T14:37:24;24.50;99.90
14359;DHT22;7263;49.418;11.064;2022-08-21T14:39:51;24.40;99.90
14359;DHT22;7263;49.418;11.064;2022-08-21T14:42:18;24.30;99.90
14359;DHT22;7263;49.418;11.064;2022-08-21T14:44:47;24.20;99.90
14359;DHT22;7263;49.418;11.064;2022-08-21T14:47:14;24.20;99.90
14359;DHT22;7263;49.418;11.064;2022-08-21T14:49:41;24.20;99.90
14359;DHT22;7263;49.418;11.064;2022-08-21T14:52:08;24.10;99.90
14359;DHT22;7263;49.418;11.064;2022-08-21T14:54:35;24.20;99.90
14359;DHT22;7263;49.418;11.064;2022-08-21T14:57:06;24.20;99.90
14359;DHT22;7263;49.418;11.064;2022-08-21T14:59:35;24.20;99.90
14359;DHT22;7263;49.418;11.064;2022-08-21T15:02:05;24.20;99.90
14359;DHT22;7263;49.418;11.064;2022-08-21T15:04:32;24.20;99.90
14359;DHT22;7263;49.418;11.064;2022-08-21T15:06:59;24.20;99.90
14359;DHT22;7263;49.418;11.064;2022-08-21T15:09:27;24.20;99.90
14359;DHT22;7263;49.418;11.064;2022-08-21T15:11:57;24.30;99.90
14359;DHT22;7263;49.418;11.064;2022-08-21T15:14:26;24.30;99.90
14359;DHT22;7263;49.418;11.064;2022-08-21T15:16:54;24.30;99.90
14359;DHT22;7263;49.418;11.064;2022-08-21T15:19:22;24.30;99.90
14359;DHT22;7263;49.418;11.064;2022-08-21T15:21:49;24.20;99.90
14359;DHT22;7263;49.418;11.064;2022-08-21T15:24:16;24.20;99.90
14359;DHT22;7263;49.418;11.064;2022-08-21T15:26:43;24.10;99.90
14359;DHT22;7263;49.418;11.064;2022-08-21T15:29:10;24.20;99.90
14359;DHT22;7263;49.418;11.064;2022-08-21T15:31:51;24.10;99.90
14359;DHT22;7263;49.418;11.064;2022-08-21T15:34:18;24.10;99.90
14359;DHT22;7263;49.418;11.064;2022-08-21T15:36:46;24.10;99.90
14359;DHT22;7263;49.418;11.064;2022-08-21T15:39:13;24.10;99.50
14359;DHT22;7263;49.418;11.064;2022-08-21T15:41:40;24.10;99.90
14359;DHT22;7263;49.418;11.064;2022-08-21T15:44:09;24.10;99.90
14359;DHT22;7263;49.418;11.064;2022-08-21T15:46:38;24.10;99.90
14359;DHT22;7263;49.418;11.064;2022-08-21T15:49:05;24.10;99.50
14359;DHT22;7263;49.418;11.064;2022-08-21T15:51:33;24.10;99.70
14359;DHT22;7263;49.418;11.064;2022-08-21T15:54:01;24.10;99.90
14359;DHT22;7263;49.418;11.064;2022-08-21T15:56:34;24.10;99.50
14359;DHT22;7263;49.418;11.064;2022-08-21T15:59:05;24.10;99.80
14359;DHT22;7263;49.418;11.064;2022-08-21T16:01:33;24.10;99.90
14359;DHT22;7263;49.418;11.064;2022-08-21T16:04:02;24.00;99.90
14359;DHT22;7263;49.418;11.064;2022-08-21T16:06:30;25.80;99.90
14359;DHT22;7263;49.418;11.064;2022-08-21T16:08:58;23.90;99.90
14359;DHT22;7263;49.418;11.064;2022-08-21T16:11:27;23.90;99.90
14359;DHT22;7263;49.418;11.064;2022-08-21T16:13:54;23.90;99.90
14359;DHT22;7263;49.418;11.064;2022-08-21T16:16:23;23.90;99.90
14359;DHT22;7263;49.418;11.064;2022-08-21T16:18:51;23.90;99.90
14359;DHT22;7263;49.418;11.064;2022-08-21T16:21:18;23.80;99.90
14359;DHT22;7263;49.418;11.064;2022-08-21T16:23:45;23.80;99.90
14359;DHT22;7263;49.418;11.064;2022-08-21T16:26:13;23.70;99.90
14359;DHT22;7263;49.418;11.064;2022-08-21T16:28:43;23.60;99.90
14359;DHT22;7263;49.418;11.064;2022-08-21T16:31:11;23.60;99.90
14359;DHT22;7263;49.418;11.064;2022-08-21T16:33:41;23.60;99.90
14359;DHT22;7263;49.418;11.064;2022-08-21T16:36:10;27.30;99.90
14359;DHT22;7263;49.418;11.064;2022-08-21T16:38:38;23.60;99.90
14359;DHT22;7263;49.418;11.064;2022-08-21T16:41:09;23.60;99.90
14359;DHT22;7263;49.418;11.064;2022-08-21T16:43:38;23.60;99.90
14359;DHT22;7263;49.418;11.064;2022-08-21T16:46:09;23.60;99.90
14359;DHT22;7263;49.418;11.064;2022-08-21T16:48:36;23.60;99.90
14359;DHT22;7263;49.418;11.064;2022-08-21T16:51:04;23.60;99.70
14359;DHT22;7263;49.418;11.064;2022-08-21T16:53:31;23.50;99.90
14359;DHT22;7263;49.418;11.064;2022-08-21T16:55:58;23.60;99.90
14359;DHT22;7263;49.418;11.064;2022-08-21T16:58:28;23.50;99.90
14359;DHT22;7263;49.418;11.064;2022-08-21T17:00:56;23.40;99.90
14359;DHT22;7263;49.418;11.064;2022-08-21T17:03:30;23.30;99.90
14359;DHT22;7263;49.418;11.064;2022-08-21T17:05:58;23.30;99.90
14359;DHT22;7263;49.418;11.064;2022-08-21T17:08:25;23.30;99.90
14359;DHT22;7263;49.418;11.064;2022-08-21T17:10:53;23.30;99.90
14359;DHT22;7263;49.418;11.064;2022-08-21T17:13:20;23.40;98.90
14359;DHT22;7263;49.418;11.064;2022-08-21T17:15:47;23.40;99.20
14359;DHT22;7263;49.418;11.064;2022-08-21T17:18:17;23.30;99.50
14359;DHT22;7263;49.418;11.064;2022-08-21T17:20:47;23.30;99.90
14359;DHT22;7263;49.418;11.064;2022-08-21T17:23:14;23.20;99.60
14359;DHT22;7263;49.418;11.064;2022-08-21T17:25:44;23.20;99.90
14359;DHT22;7263;49.418;11.064;2022-08-21T17:28:14;23.20;99.80
14359;DHT22;7263;49.418;11.064;2022-08-21T17:30:43;23.20;99.50
14359;DHT22;7263;49.418;11.064;2022-08-21T17:33:11;23.20;99.20
14359;DHT22;7263;49.418;11.064;2022-08-21T17:35:39;23.10;99.50
14359;DHT22;7263;49.418;11.064;2022-08-21T17:38:08;23.00;99.20
14359;DHT22;7263;49.418;11.064;2022-08-21T17:40:35;23.00;99.40
14359;DHT22;7263;49.418;11.064;2022-08-21T17:43:03;22.90;99.90
14359;DHT22;7263;49.418;11.064;2022-08-21T17:45:30;22.90;99.90
14359;DHT22;7263;49.418;11.064;2022-08-21T17:47:57;22.80;99.90
14359;DHT22;7263;49.418;11.064;2022-08-21T17:50:23;22.70;99.90
14359;DHT22;7263;49.418;11.064;2022-08-21T17:52:50;22.70;99.90
14359;DHT22;7263;49.418;11.064;2022-08-21T17:55:19;22.60;99.90
14359;DHT22;7263;49.418;11.064;2022-08-21T17:57:49;22.50;99.90
14359;DHT22;7263;49.418;11.064;2022-08-21T18:00:18;22.50;99.90
14359;DHT22;7263;49.418;11.064;2022-08-21T18:02:57;22.40;99.90